sensor_id;sensor_type;location;lat;lon;timestamp;temperature;humidity
7686;DHT22;3885;51.474;-2.576;2022-12-29T00:00:55;9.10;99.90
7686;DHT22;3885;51.474;-2.576;2022-12-29T00:03:22;9.10;99.90
7686;DHT22;3885;51.474;-2.576;2022-12-29T00:05:54;9.20;99.90
7686;DHT22;3885;51.474;-2.576;2022-12-29T00:08:21;9.20;99.90
7686;DHT22;3885;51.474;-2.576;2022-12-29T00:11:06;9.20;99.90
7686;DHT22;3885;51.474;-2.576;2022-12-29T00:13:33;9.20;99.90
7686;DHT22;3885;51.474;-2.576;2022-12-29T00:16:18;9.20;99.90
7686;DHT22;3885;51.474;-2.576;2022-12-29T00:18:45;9.20;99.90
7686;DHT22;3885;51.474;-2.576;2022-12-29T00:21:13;9.20;99.90
7686;DHT22;3885;51.474;-2.576;2022-12-29T00:23:57;9.20;99.90
7686;DHT22;3885;51.474;-2.576;2022-12-29T00:26:50;12.70;99.90
7686;DHT22;3885;51.474;-2.576;2022-12-29T00:32:21;9.10;99.90
7686;DHT22;3885;51.474;-2.576;2022-12-29T00:35:08;9.10;99.90
7686;DHT22;3885;51.474;-2.576;2022-12-29T00:37:36;9.10;99.90
7686;DHT22;3885;51.474;-2.576;2022-12-29T00:40:21;9.10;99.90
7686;DHT22;3885;51.474;-2.576;2022-12-29T00:43:06;9.00;99.90
7686;DHT22;3885;51.474;-2.576;2022-12-29T00:45:50;9.10;99.90
7686;DHT22;3885;51.474;-2.576;2022-12-29T00:48:17;9.10;99.90
7686;DHT22;3885;51.474;-2.576;2022-12-29T00:51:04;9.10;99.90
7686;DHT22;3885;51.474;-2.576;2022-12-29T00:53:30;9.10;99.90
7686;DHT22;3885;51.474;-2.576;2022-12-29T00:55:57;9.20;99.90
7686;DHT22;3885;51.474;-2.576;2022-12-29T00:58:26;9.20;99.90
7686;DHT22;3885;51.474;-2.576;2022-12-29T01:01:01;9.20;99.90
7686;DHT22;3885;51.474;-2.576;2022-12-29T01:03:28;9.20;99.90
7686;DHT22;3885;51.474;-2.576;2022-12-29T01:08:22;9.20;99.90
7686;DHT22;3885;51.474;-2.576;2022-12-29T01:10:58;9.20;99.90
7686;DHT22;3885;51.474;-2.576;2022-12-29T01:13:25;9.20;99.90
7686;DHT22;3885;51.474;-2.576;2022-12-29T01:15:52;9.20;99.90
7686;DHT22;3885;51.474;-2.576;2022-12-29T01:18:20;9.20;99.90
7686;DHT22;3885;51.474;-2.576;2022-12-29T01:23:15;9.20;99.90
7686;DHT22;3885;51.474;-2.576;2022-12-29T01:25:42;9.20;99.90
7686;DHT22;3885;51.474;-2.576;2022-12-29T01:28:09;9.20;99.90
7686;DHT22;3885;51.474;-2.576;2022-12-29T01:30:37;9.20;99.90
7686;DHT22;3885;51.474;-2.576;2022-12-29T01:33:04;9.20;99.90
7686;DHT22;3885;51.474;-2.576;2022-12-29T01:35:31;9.20;99.90
7686;DHT22;3885;51.474;-2.576;2022-12-29T01:37:58;9.20;99.90
7686;DHT22;3885;51.474;-2.576;2022-12-29T01:42:53;9.20;99.90
7686;DHT22;3885;51.474;-2.576;2022-12-29T01:45:20;9.10;99.90
7686;DHT22;3885;51.474;-2.576;2022-12-29T01:47:52;9.20;99.90
7686;DHT22;3885;51.474;-2.576;2022-12-29T01:50:23;9.30;99.90
7686;DHT22;3885;51.474;-2.576;2022-12-29T01:52:57;9.30;99.90
7686;DHT22;3885;51.474;-2.576;2022-12-29T01:55:28;9.40;99.90
7686;DHT22;3885;51.474;-2.576;2022-12-29T01:57:57;9.40;99.90
7686;DHT22;3885;51.474;-2.576;2022-12-29T02:00:26;9.50;99.90
7686;DHT22;3885;51.474;-2.576;2022-12-29T02:05:26;9.50;99.90
7686;DHT22;3885;51.474;-2.576;2022-12-29T02:07:54;9.50;99.90
7686;DHT22;3885;51.474;-2.576;2022-12-29T02:10:23;9.60;99.90
7686;DHT22;3885;51.474;-2.576;2022-12-29T02:12:51;9.60;99.90
7686;DHT22;3885;51.474;-2.576;2022-12-29T02:15:22;9.60;99.90
7686;DHT22;3885;51.474;-2.576;2022-12-29T02:18:03;9.60;99.90
7686;DHT22;3885;51.474;-2.576;2022-12-29T02:21:13;9.60;99.90
7686;DHT22;3885;51.474;-2.576;2022-12-29T02:27:24;9.60;99.90
7686;DHT22;3885;51.474;-2.576;2022-12-29T02:30:06;9.60;99.90
7686;DHT22;3885;51.474;-2.576;2022-12-29T02:32:40;9.60;99.90
7686;DHT22;3885;51.474;-2.576;2022-12-29T02:35:19;9.60;99.90
7686;DHT22;3885;51.474;-2.576;2022-12-29T02:37:53;9.50;99.90
7686;DHT22;3885;51.474;-2.576;2022-12-29T02:40:25;9.40;99.90
7686;DHT22;3885;51.474;-2.576;2022-12-29T02:43:02;9.30;99.90
7686;DHT22;3885;51.474;-2.576;2022-12-29T02:45:36;9.30;99.90
7686;DHT22;3885;51.474;-2.576;2022-12-29T02:48:10;9.20;99.90
7686;DHT22;3885;51.474;-2.576;2022-12-29T02:50:47;9.20;99.90
7686;DHT22;3885;51.474;-2.576;2022-12-29T02:53:19;9.10;99.90
7686;DHT22;3885;51.474;-2.576;2022-12-29T02:56:07;9.10;99.90
7686;DHT22;3885;51.474;-2.576;2022-12-29T02:58:33;9.00;99.90
7686;DHT22;3885;51.474;-2.576;2022-12-29T03:01:22;9.00;99.90
7686;DHT22;3885;51.474;-2.576;2022-12-29T03:04:05;8.90;99.90
7686;DHT22;3885;51.474;-2.576;2022-12-29T03:06:38;8.90;99.90
7686;DHT22;3885;51.474;-2.576;2022-12-29T03:09:14;8.90;99.90
7686;DHT22;3885;51.474;-2.576;2022-12-29T03:11:50;8.90;99.90
7686;DHT22;3885;51.474;-2.576;2022-12-29T03:14:44;8.90;99.90
7686;DHT22;3885;51.474;-2.576;2022-12-29T03:17:43;8.80;99.90
7686;DHT22;3885;51.474;-2.576;2022-12-29T03:20:18;8.80;99.90
7686;DHT22;3885;51.474;-2.576;2022-12-29T03:22:48;8.80;99.90
7686;DHT22;3885;51.474;-2.576;2022-12-29T03:25:21;8.70;99.90
7686;DHT22;3885;51.474;-2.576;2022-12-29T03:27:54;8.70;99.90
7686;DHT22;3885;51.474;-2.576;2022-12-29T03:30:23;8.70;99.90
7686;DHT22;3885;51.474;-2.576;2022-12-29T03:32:52;8.70;99.90
7686;DHT22;3885;51.474;-2.576;2022-12-29T03:35:24;8.60;99.90
7686;DHT22;3885;51.474;-2.576;2022-12-29T03:37:59;8.50;99.90
7686;DHT22;3885;51.474;-2.576;2022-12-29T03:40:29;8.50;99.90
7686;DHT22;3885;51.474;-2.576;2022-12-29T03:42:58;8.50;99.90
7686;DHT22;3885;51.474;-2.576;2022-12-29T03:45:25;8.50;99.90
7686;DHT22;3885;51.474;-2.576;2022-12-29T03:47:53;8.40;99.90
7686;DHT22;3885;51.474;-2.576;2022-12-29T03:50:21;8.40;99.90
7686;DHT22;3885;51.474;-2.576;2022-12-29T03:52:48;8.40;99.90
7686;DHT22;3885;51.474;-2.576;2022-12-29T03:55:15;8.40;99.90
7686;DHT22;3885;51.474;-2.576;2022-12-29T03:57:42;8.40;99.90
7686;DHT22;3885;51.474;-2.576;2022-12-29T04:00:10;8.30;99.90
7686;DHT22;3885;51.474;-2.576;2022-12-29T04:02:37;8.40;99.90
7686;DHT22;3885;51.474;-2.576;2022-12-29T04:05:05;8.40;99.90
7686;DHT22;3885;51.474;-2.576;2022-12-29T04:07:34;8.40;99.90
7686;DHT22;3885;51.474;-2.576;2022-12-29T04:12:28;8.40;99.90
7686;DHT22;3885;51.474;-2.576;2022-12-29T04:14:55;8.30;99.90
7686;DHT22;3885;51.474;-2.576;2022-12-29T04:17:22;8.30;99.90
7686;DHT22;3885;51.474;-2.576;2022-12-29T04:19:49;8.30;99.90
7686;DHT22;3885;51.474;-2.576;2022-12-29T04:22:16;8.30;99.90
7686;DHT22;3885;51.474;-2.576;2022-12-29T04:24:44;8.30;99.90
7686;DHT22;3885;51.474;-2.576;2022-12-29T04:27:11;8.30;99.90
7686;DHT22;3885;51.474;-2.576;2022-12-29T04:29:38;8.30;99.90
7686;DHT22;3885;51.474;-2.576;2022-12-29T04:32:05;8.30;99.90
7686;DHT22;3885;51.474;-2.576;2022-12-29T04:34:32;8.20;99.90
7686;DHT22;3885;51.474;-2.576;2022-12-29T04:36:59;8.20;99.90
7686;DHT22;3885;51.474;-2.576;2022-12-29T04:39:26;8.20;99.90
7686;DHT22;3885;51.474;-2.576;2022-12-29T04:44:21;8.20;99.90
7686;DHT22;3885;51.474;-2.576;2022-12-29T04:49:15;8.20;99.90
7686;DHT22;3885;51.474;-2.576;2022-12-29T04:51:42;8.10;99.90
7686;DHT22;3885;51.474;-2.576;2022-12-29T04:54:09;8.10;99.90
7686;DHT22;3885;51.474;-2.576;2022-12-29T04:56:36;8.10;99.90
7686;DHT22;3885;51.474;-2.576;2022-12-29T04:59:04;8.20;99.90
7686;DHT22;3885;51.474;-2.576;2022-12-29T05:01:31;8.20;99.90
7686;DHT22;3885;51.474;-2.576;2022-12-29T05:03:58;8.20;99.90
7686;DHT22;3885;51.474;-2.576;2022-12-29T05:06:25;8.20;99.90
7686;DHT22;3885;51.474;-2.576;2022-12-29T05:08:52;8.30;99.90
7686;DHT22;3885;51.474;-2.576;2022-12-29T05:11:19;8.30;99.90
7686;DHT22;3885;51.474;-2.576;2022-12-29T05:13:46;8.30;99.90
7686;DHT22;3885;51.474;-2.576;2022-12-29T05:16:14;8.20;99.90
7686;DHT22;3885;51.474;-2.576;2022-12-29T05:18:41;8.20;99.90
7686;DHT22;3885;51.474;-2.576;2022-12-29T05:21:08;8.20;99.90
7686;DHT22;3885;51.474;-2.576;2022-12-29T05:23:35;8.20;99.90
7686;DHT22;3885;51.474;-2.576;2022-12-29T05:28:29;8.20;99.90
7686;DHT22;3885;51.474;-2.576;2022-12-29T05:30:56;8.10;99.90
7686;DHT22;3885;51.474;-2.576;2022-12-29T05:33:24;8.10;99.90
7686;DHT22;3885;51.474;-2.576;2022-12-29T05:35:51;8.20;99.90
7686;DHT22;3885;51.474;-2.576;2022-12-29T05:38:18;8.20;99.90
7686;DHT22;3885;51.474;-2.576;2022-12-29T05:40:45;8.10;99.90
7686;DHT22;3885;51.474;-2.576;2022-12-29T05:43:12;8.10;99.90
7686;DHT22;3885;51.474;-2.576;2022-12-29T05:45:39;8.10;99.90
7686;DHT22;3885;51.474;-2.576;2022-12-29T05:48:06;8.10;99.90
7686;DHT22;3885;51.474;-2.576;2022-12-29T05:50:34;8.00;99.90
7686;DHT22;3885;51.474;-2.576;2022-12-29T05:53:01;8.00;99.90
7686;DHT22;3885;51.474;-2.576;2022-12-29T05:55:28;8.00;99.90
7686;DHT22;3885;51.474;-2.576;2022-12-29T05:57:55;8.00;99.90
7686;DHT22;3885;51.474;-2.576;2022-12-29T06:00:22;7.90;99.90
7686;DHT22;3885;51.474;-2.576;2022-12-29T06:02:49;7.90;99.90
7686;DHT22;3885;51.474;-2.576;2022-12-29T06:05:16;8.00;99.90
7686;DHT22;3885;51.474;-2.576;2022-12-29T06:07:45;8.00;99.90
7686;DHT22;3885;51.474;-2.576;2022-12-29T06:12:39;7.90;99.90
7686;DHT22;3885;51.474;-2.576;2022-12-29T06:15:07;7.90;99.90
7686;DHT22;3885;51.474;-2.576;2022-12-29T06:17:34;7.90;99.90
7686;DHT22;3885;51.474;-2.576;2022-12-29T06:20:01;7.90;99.90
7686;DHT22;3885;51.474;-2.576;2022-12-29T06:22:28;7.90;99.90
7686;DHT22;3885;51.474;-2.576;2022-12-29T06:24:56;7.90;99.90
7686;DHT22;3885;51.474;-2.576;2022-12-29T06:27:23;7.90;99.90
7686;DHT22;3885;51.474;-2.576;2022-12-29T06:29:50;7.90;99.90
7686;DHT22;3885;51.474;-2.576;2022-12-29T06:32:17;8.00;99.90
7686;DHT22;3885;51.474;-2.576;2022-12-29T06:34:44;8.00;99.90
7686;DHT22;3885;51.474;-2.576;2022-12-29T06:37:11;8.00;99.90
7686;DHT22;3885;51.474;-2.576;2022-12-29T06:39:38;8.00;99.90
7686;DHT22;3885;51.474;-2.576;2022-12-29T06:42:07;8.00;99.90
7686;DHT22;3885;51.474;-2.576;2022-12-29T06:44:35;8.10;99.90
7686;DHT22;3885;51.474;-2.576;2022-12-29T06:47:02;8.10;99.90
7686;DHT22;3885;51.474;-2.576;2022-12-29T06:49:29;8.10;99.90
7686;DHT22;3885;51.474;-2.576;2022-12-29T06:54:26;8.10;99.90
7686;DHT22;3885;51.474;-2.576;2022-12-29T06:56:53;8.10;99.90
7686;DHT22;3885;51.474;-2.576;2022-12-29T06:59:21;8.00;99.90
7686;DHT22;3885;51.474;-2.576;2022-12-29T07:01:49;8.10;99.90
7686;DHT22;3885;51.474;-2.576;2022-12-29T07:04:15;8.00;99.90
7686;DHT22;3885;51.474;-2.576;2022-12-29T07:06:43;8.10;99.90
7686;DHT22;3885;51.474;-2.576;2022-12-29T07:11:37;8.10;99.90
7686;DHT22;3885;51.474;-2.576;2022-12-29T07:14:04;8.00;99.90
7686;DHT22;3885;51.474;-2.576;2022-12-29T07:16:32;8.00;99.90
7686;DHT22;3885;51.474;-2.576;2022-12-29T07:21:27;8.00;99.90
7686;DHT22;3885;51.474;-2.576;2022-12-29T07:23:54;8.00;99.90
7686;DHT22;3885;51.474;-2.576;2022-12-29T07:26:21;8.00;99.90
7686;DHT22;3885;51.474;-2.576;2022-12-29T07:28:48;8.00;99.90
7686;DHT22;3885;51.474;-2.576;2022-12-29T07:31:17;8.00;99.90
7686;DHT22;3885;51.474;-2.576;2022-12-29T07:33:46;8.00;99.90
7686;DHT22;3885;51.474;-2.576;2022-12-29T07:36:16;7.90;99.90
7686;DHT22;3885;51.474;-2.576;2022-12-29T07:38:43;7.90;99.90
7686;DHT22;3885;51.474;-2.576;2022-12-29T07:41:10;7.80;99.90
7686;DHT22;3885;51.474;-2.576;2022-12-29T07:43:37;7.80;99.90
7686;DHT22;3885;51.474;-2.576;2022-12-29T07:46:04;7.80;99.90
7686;DHT22;3885;51.474;-2.576;2022-12-29T07:51:02;7.80;99.90
7686;DHT22;3885;51.474;-2.576;2022-12-29T07:53:29;7.80;99.90
7686;DHT22;3885;51.474;-2.576;2022-12-29T07:55:56;7.80;99.90
7686;DHT22;3885;51.474;-2.576;2022-12-29T07:58:23;7.80;99.90
7686;DHT22;3885;51.474;-2.576;2022-12-29T08:00:53;7.70;99.90
7686;DHT22;3885;51.474;-2.576;2022-12-29T08:03:20;7.70;99.90
7686;DHT22;3885;51.474;-2.576;2022-12-29T08:05:47;7.70;99.90
7686;DHT22;3885;51.474;-2.576;2022-12-29T08:08:16;7.70;99.90
7686;DHT22;3885;51.474;-2.576;2022-12-29T08:10:42;7.70;99.90
7686;DHT22;3885;51.474;-2.576;2022-12-29T08:13:09;7.70;99.90
7686;DHT22;3885;51.474;-2.576;2022-12-29T08:15:38;7.70;99.90
7686;DHT22;3885;51.474;-2.576;2022-12-29T08:18:05;7.70;99.90
7686;DHT22;3885;51.474;-2.576;2022-12-29T08:20:31;7.60;99.90
7686;DHT22;3885;51.474;-2.576;2022-12-29T08:22:58;7.60;99.90
7686;DHT22;3885;51.474;-2.576;2022-12-29T08:25:27;7.60;99.90
7686;DHT22;3885;51.474;-2.576;2022-12-29T08:27:54;7.60;99.90
7686;DHT22;3885;51.474;-2.576;2022-12-29T08:30:20;7.60;99.90
7686;DHT22;3885;51.474;-2.576;2022-12-29T08:32:47;7.60;99.90
7686;DHT22;3885;51.474;-2.576;2022-12-29T08:35:14;7.60;99.90
7686;DHT22;3885;51.474;-2.576;2022-12-29T08:37:41;7.60;99.90
7686;DHT22;3885;51.474;-2.576;2022-12-29T08:40:09;7.50;99.90
7686;DHT22;3885;51.474;-2.576;2022-12-29T08:42:37;7.40;99.90
7686;DHT22;3885;51.474;-2.576;2022-12-29T08:45:06;7.30;99.90
7686;DHT22;3885;51.474;-2.576;2022-12-29T08:50:01;7.40;99.90
7686;DHT22;3885;51.474;-2.576;2022-12-29T08:52:28;7.40;99.90
7686;DHT22;3885;51.474;-2.576;2022-12-29T08:57:22;7.40;99.90
7686;DHT22;3885;51.474;-2.576;2022-12-29T08:59:50;7.40;99.90
7686;DHT22;3885;51.474;-2.576;2022-12-29T09:04:44;7.40;99.90
7686;DHT22;3885;51.474;-2.576;2022-12-29T09:07:11;7.40;99.90
7686;DHT22;3885;51.474;-2.576;2022-12-29T09:12:06;7.40;99.90
7686;DHT22;3885;51.474;-2.576;2022-12-29T09:17:01;7.40;99.90
7686;DHT22;3885;51.474;-2.576;2022-12-29T09:19:45;7.40;99.90
7686;DHT22;3885;51.474;-2.576;2022-12-29T09:24:39;7.40;99.90
7686;DHT22;3885;51.474;-2.576;2022-12-29T09:29:33;7.20;99.90
7686;DHT22;3885;51.474;-2.576;2022-12-29T09:32:02;7.20;99.90
7686;DHT22;3885;51.474;-2.576;2022-12-29T09:34:29;7.20;99.90
7686;DHT22;3885;51.474;-2.576;2022-12-29T09:36:56;7.20;99.90
7686;DHT22;3885;51.474;-2.576;2022-12-29T09:39:23;7.20;99.90
7686;DHT22;3885;51.474;-2.576;2022-12-29T09:41:52;7.20;99.90
7686;DHT22;3885;51.474;-2.576;2022-12-29T09:44:31;7.20;99.90
7686;DHT22;3885;51.474;-2.576;2022-12-29T09:47:07;7.20;99.90
7686;DHT22;3885;51.474;-2.576;2022-12-29T09:49:40;7.20;99.90
7686;DHT22;3885;51.474;-2.576;2022-12-29T09:52:15;7.30;99.90
7686;DHT22;3885;51.474;-2.576;2022-12-29T09:54:51;7.20;99.90
7686;DHT22;3885;51.474;-2.576;2022-12-29T09:57:23;7.20;99.90
7686;DHT22;3885;51.474;-2.576;2022-12-29T09:59:54;7.20;99.90
7686;DHT22;3885;51.474;-2.576;2022-12-29T10:02:36;7.30;99.90
7686;DHT22;3885;51.474;-2.576;2022-12-29T10:05:16;7.30;99.90
7686;DHT22;3885;51.474;-2.576;2022-12-29T10:07:51;7.30;99.90
7686;DHT22;3885;51.474;-2.576;2022-12-29T10:10:35;7.20;99.90
7686;DHT22;3885;51.474;-2.576;2022-12-29T10:13:16;7.20;99.90
7686;DHT22;3885;51.474;-2.576;2022-12-29T10:15:55;7.20;99.90
7686;DHT22;3885;51.474;-2.576;2022-12-29T10:18:52;7.30;99.90
7686;DHT22;3885;51.474;-2.576;2022-12-29T10:21:31;7.40;99.90
7686;DHT22;3885;51.474;-2.576;2022-12-29T10:26:33;7.50;99.90
7686;DHT22;3885;51.474;-2.576;2022-12-29T10:29:04;7.60;99.90
7686;DHT22;3885;51.474;-2.576;2022-12-29T10:31:35;7.60;99.90
7686;DHT22;3885;51.474;-2.576;2022-12-29T10:34:13;7.60;99.90
7686;DHT22;3885;51.474;-2.576;2022-12-29T10:36:43;7.70;99.90
7686;DHT22;3885;51.474;-2.576;2022-12-29T10:39:18;7.60;99.90
7686;DHT22;3885;51.474;-2.576;2022-12-29T10:41:51;7.60;99.90
7686;DHT22;3885;51.474;-2.576;2022-12-29T10:44:20;7.60;99.90
7686;DHT22;3885;51.474;-2.576;2022-12-29T10:46:56;7.60;99.90
7686;DHT22;3885;51.474;-2.576;2022-12-29T10:49:27;7.60;99.90
7686;DHT22;3885;51.474;-2.576;2022-12-29T10:51:58;7.60;99.90
7686;DHT22;3885;51.474;-2.576;2022-12-29T10:54:29;7.70;99.90
7686;DHT22;3885;51.474;-2.576;2022-12-29T10:57:01;7.70;99.90
7686;DHT22;3885;51.474;-2.576;2022-12-29T10:59:31;7.60;99.90
7686;DHT22;3885;51.474;-2.576;2022-12-29T11:02:18;7.60;99.90
7686;DHT22;3885;51.474;-2.576;2022-12-29T11:04:55;7.60;99.90
7686;DHT22;3885;51.474;-2.576;2022-12-29T11:07:24;7.50;99.90
7686;DHT22;3885;51.474;-2.576;2022-12-29T11:09:52;7.50;99.90
7686;DHT22;3885;51.474;-2.576;2022-12-29T11:12:22;7.50;99.90
7686;DHT22;3885;51.474;-2.576;2022-12-29T11:15:06;7.50;99.90
7686;DHT22;3885;51.474;-2.576;2022-12-29T11:17:44;7.50;99.90
7686;DHT22;3885;51.474;-2.576;2022-12-29T11:20:43;7.50;99.90
7686;DHT22;3885;51.474;-2.576;2022-12-29T11:26:06;7.50;99.90
7686;DHT22;3885;51.474;-2.576;2022-12-29T11:33:29;7.60;99.90
7686;DHT22;3885;51.474;-2.576;2022-12-29T11:36:01;7.70;99.90
7686;DHT22;3885;51.474;-2.576;2022-12-29T11:40:59;7.90;99.90
7686;DHT22;3885;51.474;-2.576;2022-12-29T11:43:30;8.10;99.90
7686;DHT22;3885;51.474;-2.576;2022-12-29T11:45:59;8.30;99.90
7686;DHT22;3885;51.474;-2.576;2022-12-29T11:48:31;8.40;99.90
7686;DHT22;3885;51.474;-2.576;2022-12-29T11:51:00;8.40;99.90
7686;DHT22;3885;51.474;-2.576;2022-12-29T11:53:31;8.40;99.90
7686;DHT22;3885;51.474;-2.576;2022-12-29T11:56:04;8.40;99.90
7686;DHT22;3885;51.474;-2.576;2022-12-29T11:58:33;8.20;99.90
7686;DHT22;3885;51.474;-2.576;2022-12-29T12:01:01;8.20;99.90
7686;DHT22;3885;51.474;-2.576;2022-12-29T12:03:31;8.20;99.90
7686;DHT22;3885;51.474;-2.576;2022-12-29T12:06:01;8.30;99.90
7686;DHT22;3885;51.474;-2.576;2022-12-29T12:11:06;8.20;99.90
7686;DHT22;3885;51.474;-2.576;2022-12-29T12:18:46;8.30;99.90
7686;DHT22;3885;51.474;-2.576;2022-12-29T12:24:00;8.20;99.90
7686;DHT22;3885;51.474;-2.576;2022-12-29T12:26:33;8.10;99.90
7686;DHT22;3885;51.474;-2.576;2022-12-29T12:29:05;8.10;99.90
7686;DHT22;3885;51.474;-2.576;2022-12-29T12:31:43;8.00;99.90
7686;DHT22;3885;51.474;-2.576;2022-12-29T12:34:16;8.00;99.90
7686;DHT22;3885;51.474;-2.576;2022-12-29T12:37:00;7.90;99.90
7686;DHT22;3885;51.474;-2.576;2022-12-29T12:39:37;8.00;99.90
7686;DHT22;3885;51.474;-2.576;2022-12-29T12:42:20;8.00;99.90
7686;DHT22;3885;51.474;-2.576;2022-12-29T12:44:55;7.90;99.90
7686;DHT22;3885;51.474;-2.576;2022-12-29T12:47:41;7.90;99.90
7686;DHT22;3885;51.474;-2.576;2022-12-29T12:50:28;8.00;99.90
7686;DHT22;3885;51.474;-2.576;2022-12-29T12:55:53;8.00;99.90
7686;DHT22;3885;51.474;-2.576;2022-12-29T12:58:29;7.90;99.90
7686;DHT22;3885;51.474;-2.576;2022-12-29T13:01:11;7.90;99.90
7686;DHT22;3885;51.474;-2.576;2022-12-29T13:03:53;8.00;99.90
7686;DHT22;3885;51.474;-2.576;2022-12-29T13:06:33;8.00;99.90
7686;DHT22;3885;51.474;-2.576;2022-12-29T13:09:22;8.00;99.90
7686;DHT22;3885;51.474;-2.576;2022-12-29T13:12:05;8.10;99.90
7686;DHT22;3885;51.474;-2.576;2022-12-29T13:14:42;8.10;99.90
7686;DHT22;3885;51.474;-2.576;2022-12-29T13:17:20;8.10;99.90
7686;DHT22;3885;51.474;-2.576;2022-12-29T13:19:54;8.00;99.90
7686;DHT22;3885;51.474;-2.576;2022-12-29T13:25:15;8.00;99.90
7686;DHT22;3885;51.474;-2.576;2022-12-29T13:27:50;7.90;99.90
7686;DHT22;3885;51.474;-2.576;2022-12-29T13:30:22;7.90;99.90
7686;DHT22;3885;51.474;-2.576;2022-12-29T13:32:59;7.90;99.90
7686;DHT22;3885;51.474;-2.576;2022-12-29T13:35:46;7.90;99.90
7686;DHT22;3885;51.474;-2.576;2022-12-29T13:43:25;8.00;99.90
7686;DHT22;3885;51.474;-2.576;2022-12-29T13:45:58;8.00;99.90
7686;DHT22;3885;51.474;-2.576;2022-12-29T13:48:34;8.10;99.90
7686;DHT22;3885;51.474;-2.576;2022-12-29T13:51:03;8.10;99.90
7686;DHT22;3885;51.474;-2.576;2022-12-29T13:53:35;8.10;99.90
7686;DHT22;3885;51.474;-2.576;2022-12-29T13:58:43;8.00;99.90
7686;DHT22;3885;51.474;-2.576;2022-12-29T14:01:15;7.90;99.90
7686;DHT22;3885;51.474;-2.576;2022-12-29T14:03:48;7.90;99.90
7686;DHT22;3885;51.474;-2.576;2022-12-29T14:08:47;7.90;99.90
7686;DHT22;3885;51.474;-2.576;2022-12-29T14:11:18;7.70;99.90
7686;DHT22;3885;51.474;-2.576;2022-12-29T14:13:47;7.60;99.90
7686;DHT22;3885;51.474;-2.576;2022-12-29T14:19:03;7.40;99.90
7686;DHT22;3885;51.474;-2.576;2022-12-29T14:21:32;7.30;99.90
7686;DHT22;3885;51.474;-2.576;2022-12-29T14:30:47;7.40;99.90
7686;DHT22;3885;51.474;-2.576;2022-12-29T14:33:16;7.40;99.90
7686;DHT22;3885;51.474;-2.576;2022-12-29T14:35:45;7.40;99.90
7686;DHT22;3885;51.474;-2.576;2022-12-29T14:38:26;7.50;99.90
7686;DHT22;3885;51.474;-2.576;2022-12-29T14:41:26;7.60;99.90
7686;DHT22;3885;51.474;-2.576;2022-12-29T14:43:59;7.70;99.90
7686;DHT22;3885;51.474;-2.576;2022-12-29T14:47:00;7.90;99.90
7686;DHT22;3885;51.474;-2.576;2022-12-29T14:49:32;7.90;99.90
7686;DHT22;3885;51.474;-2.576;2022-12-29T14:52:12;8.00;99.90
7686;DHT22;3885;51.474;-2.576;2022-12-29T14:54:44;8.00;99.90
7686;DHT22;3885;51.474;-2.576;2022-12-29T14:57:20;8.10;99.90
7686;DHT22;3885;51.474;-2.576;2022-12-29T14:59:53;8.10;99.90
7686;DHT22;3885;51.474;-2.576;2022-12-29T15:02:26;8.20;99.90
7686;DHT22;3885;51.474;-2.576;2022-12-29T15:05:00;8.20;99.90
7686;DHT22;3885;51.474;-2.576;2022-12-29T15:07:29;8.10;99.90
7686;DHT22;3885;51.474;-2.576;2022-12-29T15:10:00;8.00;99.90
7686;DHT22;3885;51.474;-2.576;2022-12-29T15:12:35;8.00;99.90
7686;DHT22;3885;51.474;-2.576;2022-12-29T15:15:19;7.90;99.90
7686;DHT22;3885;51.474;-2.576;2022-12-29T15:17:48;7.90;99.90
7686;DHT22;3885;51.474;-2.576;2022-12-29T15:20:22;7.70;99.90
7686;DHT22;3885;51.474;-2.576;2022-12-29T15:22:54;7.80;99.90
7686;DHT22;3885;51.474;-2.576;2022-12-29T15:25:22;7.80;99.90
7686;DHT22;3885;51.474;-2.576;2022-12-29T15:27:50;7.70;99.90
7686;DHT22;3885;51.474;-2.576;2022-12-29T15:30:19;7.70;99.90
7686;DHT22;3885;51.474;-2.576;2022-12-29T15:32:48;7.80;99.90
7686;DHT22;3885;51.474;-2.576;2022-12-29T15:35:32;7.80;99.90
7686;DHT22;3885;51.474;-2.576;2022-12-29T15:38:00;7.80;99.90
7686;DHT22;3885;51.474;-2.576;2022-12-29T15:40:39;7.90;99.90
7686;DHT22;3885;51.474;-2.576;2022-12-29T15:43:21;7.90;99.90
7686;DHT22;3885;51.474;-2.576;2022-12-29T15:45:51;7.90;99.90
7686;DHT22;3885;51.474;-2.576;2022-12-29T15:50:50;7.90;99.90
7686;DHT22;3885;51.474;-2.576;2022-12-29T15:53:21;7.80;99.90
7686;DHT22;3885;51.474;-2.576;2022-12-29T15:55:55;7.80;99.90
7686;DHT22;3885;51.474;-2.576;2022-12-29T16:00:53;7.70;99.90
7686;DHT22;3885;51.474;-2.576;2022-12-29T16:03:23;7.70;99.90
7686;DHT22;3885;51.474;-2.576;2022-12-29T16:08:33;7.60;99.90
7686;DHT22;3885;51.474;-2.576;2022-12-29T16:11:07;7.50;99.90
7686;DHT22;3885;51.474;-2.576;2022-12-29T16:13:43;7.60;99.90
7686;DHT22;3885;51.474;-2.576;2022-12-29T16:16:16;7.50;99.90
7686;DHT22;3885;51.474;-2.576;2022-12-29T16:18:46;7.40;99.90
7686;DHT22;3885;51.474;-2.576;2022-12-29T16:21:18;7.50;99.90
7686;DHT22;3885;51.474;-2.576;2022-12-29T16:23:48;7.40;99.90
7686;DHT22;3885;51.474;-2.576;2022-12-29T16:26:18;7.40;99.90
7686;DHT22;3885;51.474;-2.576;2022-12-29T16:28:48;7.40;99.90
7686;DHT22;3885;51.474;-2.576;2022-12-29T16:31:20;7.30;99.90
7686;DHT22;3885;51.474;-2.576;2022-12-29T16:33:50;7.30;99.90
7686;DHT22;3885;51.474;-2.576;2022-12-29T16:36:30;7.30;99.90
7686;DHT22;3885;51.474;-2.576;2022-12-29T16:42:08;7.20;99.90
7686;DHT22;3885;51.474;-2.576;2022-12-29T16:44:51;7.30;99.90
7686;DHT22;3885;51.474;-2.576;2022-12-29T16:47:29;7.30;99.90
7686;DHT22;3885;51.474;-2.576;2022-12-29T16:50:11;7.30;99.90
7686;DHT22;3885;51.474;-2.576;2022-12-29T16:52:38;7.20;99.90
7686;DHT22;3885;51.474;-2.576;2022-12-29T16:55:14;7.20;99.90
7686;DHT22;3885;51.474;-2.576;2022-12-29T16:57:43;7.20;99.90
7686;DHT22;3885;51.474;-2.576;2022-12-29T17:00:19;7.20;99.90
7686;DHT22;3885;51.474;-2.576;2022-12-29T17:02:47;7.20;99.90
7686;DHT22;3885;51.474;-2.576;2022-12-29T17:05:17;7.20;99.90
7686;DHT22;3885;51.474;-2.576;2022-12-29T17:07:45;7.10;99.90
7686;DHT22;3885;51.474;-2.576;2022-12-29T17:10:12;7.10;99.90
7686;DHT22;3885;51.474;-2.576;2022-12-29T17:12:41;7.00;99.90
7686;DHT22;3885;51.474;-2.576;2022-12-29T17:15:14;7.00;99.90
7686;DHT22;3885;51.474;-2.576;2022-12-29T17:17:43;7.00;99.90
7686;DHT22;3885;51.474;-2.576;2022-12-29T17:20:17;7.00;99.90
7686;DHT22;3885;51.474;-2.576;2022-12-29T17:22:44;6.90;99.90
7686;DHT22;3885;51.474;-2.576;2022-12-29T17:25:13;6.90;99.90
7686;DHT22;3885;51.474;-2.576;2022-12-29T17:30:12;6.90;99.90
7686;DHT22;3885;51.474;-2.576;2022-12-29T17:35:12;6.90;99.90
7686;DHT22;3885;51.474;-2.576;2022-12-29T17:37:41;6.90;99.90
7686;DHT22;3885;51.474;-2.576;2022-12-29T17:40:13;6.80;99.90
7686;DHT22;3885;51.474;-2.576;2022-12-29T17:42:43;6.80;99.90
7686;DHT22;3885;51.474;-2.576;2022-12-29T17:45:14;6.80;99.90
7686;DHT22;3885;51.474;-2.576;2022-12-29T17:47:42;6.80;99.90
7686;DHT22;3885;51.474;-2.576;2022-12-29T17:50:11;6.80;99.90
7686;DHT22;3885;51.474;-2.576;2022-12-29T17:52:40;6.80;99.90
7686;DHT22;3885;51.474;-2.576;2022-12-29T17:55:15;6.80;99.90
7686;DHT22;3885;51.474;-2.576;2022-12-29T17:57:42;6.80;99.90
7686;DHT22;3885;51.474;-2.576;2022-12-29T18:00:14;6.80;99.90
7686;DHT22;3885;51.474;-2.576;2022-12-29T18:02:42;6.80;99.90
7686;DHT22;3885;51.474;-2.576;2022-12-29T18:05:16;6.80;99.90
7686;DHT22;3885;51.474;-2.576;2022-12-29T18:07:45;6.80;99.90
7686;DHT22;3885;51.474;-2.576;2022-12-29T18:10:12;6.70;99.90
7686;DHT22;3885;51.474;-2.576;2022-12-29T18:12:41;6.70;99.90
7686;DHT22;3885;51.474;-2.576;2022-12-29T18:15:17;6.70;99.90
7686;DHT22;3885;51.474;-2.576;2022-12-29T18:17:44;6.70;99.90
7686;DHT22;3885;51.474;-2.576;2022-12-29T18:20:11;6.70;99.90
7686;DHT22;3885;51.474;-2.576;2022-12-29T18:25:21;6.80;99.90
7686;DHT22;3885;51.474;-2.576;2022-12-29T18:27:49;6.80;99.90
7686;DHT22;3885;51.474;-2.576;2022-12-29T18:30:17;6.80;99.90
7686;DHT22;3885;51.474;-2.576;2022-12-29T18:32:44;6.80;99.90